Weather observations for the past three days for
Deering, Deering/New Airport
Metric (Imperial)
Date Time (akdt) Wind (kph) Vis. (km) Weather Sky Cond. Temperature (ºC) Relative Humidity Wind Chill (°C) Heat Index (°C) Pressure Precipitation (cm)
Air Dwpt 6 hour altimeter (cm) sea level (mb) 1 hr 3 hr 6 hr
Max. Min.
06 22:53 W 26 16.09 A Few Clouds FEW014 -6.1 -8.3 85% -13 76.4 1018.8
06 21:53 W 26 16.09 Mostly Cloudy BKN015 -5.6 -8.3 -3.3 -5.6 82% -13 76.4 1018.7
06 20:53 W 30 16.09 A Few Clouds FEW014 -4.4 -7.8 77% -12 76.4 1018.5
06 19:53 W 28 16.09 Partly Cloudy SCT015 -3.3 -7.8 71% -10 76.38 1018.5
06 18:53 W 28 16.09 Fair CLR -3.9 -7.8 75% -11 76.35 1018.1
06 17:53 W 28 16.09 Fair CLR -3.9 -7.8 75% -11 76.33 1017.7
06 16:53 W 28 14.48 Overcast OVC049 -3.9 -8.3 72% -11 76.33 1017.6
06 14:53 W 24 14.48 Overcast OVC014 -4.4 -7.8 77% -11 76.3 1017.2
06 13:53 W 28 9.66 Light Snow BKN015 BKN021 OVC030 -3.9 -7.8 75% -11 76.3 1017.2
06 12:53 W 30 16.09 Overcast FEW013 OVC055 -4.4 -7.8 77% -12 76.25 1016.8
06 11:53 W 28 16.09 Overcast FEW012 OVC050 -5 -8.3 78% -12 76.25 1016.5
06 10:53 W 30 16.09 Overcast SCT010 OVC050 -5 -7.8 81% -12 76.25 1016.5
06 09:53 W 24 16.09 Overcast OVC007 -6.7 -8.3 -6.1 -7.8 89% -14 76.25 1016.5
06 08:53 W 20 16.09 Overcast OVC007 -7.2 -8.9 88% -14 76.23 1016.2
06 07:53 W 19 16.09 Overcast OVC009 -7.2 -8.9 88% -14 76.2 1015.9
06 06:53 NW 19 16.09 Overcast OVC013 -7.2 -8.9 88% -14 76.17 1015.5
06 05:53 W 24 16.09 Overcast OVC013 -6.1 -8.3 85% -13 76.15 1015.3
06 04:53 W 24 16.09 Overcast BKN017 OVC043 -6.1 -7.8 88% -13 76.12 1015.0
06 03:53 SW 11 16.09 Overcast OVC010 -7.2 -8.3 -4.4 -7.8 92% -12 76.12 1015.0
06 02:53 W 17 16.09 Overcast OVC011 -6.7 -7.8 92% -13 76.12 1014.8
06 01:53 W 24 16.09 Mostly Cloudy BKN012 -6.7 -7.8 92% -14 76.1 1014.7
06 00:53 W 15 16.09 Fair CLR -7.8 -8.9 92% -13 76.1 1014.4
05 23:53 W 17 16.09 Fair CLR -6.7 -8.3 89% -13 76.05 1014.0
05 22:53 W 17 16.09 Fair CLR -5.6 -7.8 85% -11 76.05 1013.9
05 21:53 W 20 16.09 Fair CLR -4.4 -7.8 -1.1 -4.4 77% -10 76.02 1013.6
05 20:53 NW 22 16.09 Fair CLR -3.3 -7.2 75% -9 76 1013.3
05 19:53 NW 26 16.09 Fair CLR -2.8 -7.2 72% -9 76 1013.2
05 18:53 NW 22 16.09 Fair CLR -2.2 -6.7 72% -8 75.97 1013.0
05 17:53 NW 24 16.09 Fair CLR -2.2 -6.1 75% -8 75.95 1012.6
05 16:53 W 26 16.09 Mostly Cloudy BKN016 -2.2 -5.6 78% -8 75.95 1012.5
05 15:53 W 31 G 44 16.09 Mostly Cloudy BKN014 -1.7 -6.1 -1.7 -5.6 72% -8 75.95 1012.4
05 14:53 W 33 G 43 16.09 Overcast and Breezy OVC012 -2.2 -6.1 75% -9 75.95 1012.5
05 13:53 W 30 16.09 Overcast OVC010 -3.3 -6.1 81% -10 75.92 1012.4
05 12:53 W 30 G 43 16.09 Overcast OVC010 -3.9 -6.7 81% -11 75.95 1012.4
05 11:53 W 30 G 41 16.09 Overcast OVC009 -4.4 -7.2 81% -12 75.92 1012.3
05 10:53 W 26 16.09 Overcast OVC008 -5 -7.2 85% -12 75.95 1012.6
05 09:53 W 26 16.09 Overcast OVC008 -5.6 -7.2 -4.4 -5.6 89% -13 75.95 1012.6
05 08:53 W 28 16.09 Overcast OVC009 -5.6 -7.2 89% -13 75.95 1012.7
05 07:53 W 28 16.09 Overcast OVC010 -5 -7.2 85% -12 75.92 1012.3
05 06:53 NW 28 16.09 Overcast OVC011 -5 -7.2 85% -12 75.95 1012.4
05 05:53 W 22 16.09 Overcast OVC011 -5 -7.2 85% -11 75.95 1012.6
05 04:53 W 22 16.09 Overcast OVC012 -4.4 -6.7 84% -11 75.95 1012.6
05 03:53 W 22 16.09 Overcast OVC011 -4.4 -6.7 -3.3 -5.6 84% -11 75.97 1013.0
05 02:53 NW 24 16.09 Overcast OVC010 -5 -6.7 88% -12 76.02 1013.5
05 01:53 NW 20 16.09 Overcast OVC011 -4.4 -6.7 84% -10 76.05 1013.9
05 00:53 W 20 16.09 Mostly Cloudy BKN012 -5 -6.7 88% -11 76.05 1014.0
04 23:53 NW 20 16.09 Fair CLR -5 -6.7 88% -11 76.07 1014.3
04 22:53 NW 20 16.09 Fair CLR -4.4 -6.1 88% -10 76.1 1014.6
04 21:53 NW 17 16.09 Fair CLR -3.3 -5.6 -0.6 -3.3 84% -8 76.12 1015.0
04 20:53 NW 19 16.09 Fair CLR -2.2 -5 81% -7 76.15 1015.4
04 19:53 NW 19 16.09 Fair CLR -2.2 -4.4 85% -7 76.17 1015.7
04 18:53 NW 17 16.09 A Few Clouds FEW008 -1.7 -4.4 82% -6 76.2 1016.1
04 17:53 NW 17 16.09 Fair CLR -1.1 -4.4 79% -6 76.25 1016.5
04 16:53 NW 17 16.09 Fair CLR -1.1 -4.4 79% -6 76.28 1017.1
04 15:53 NW 19 16.09 Fair CLR -1.7 -4.4 -1.1 -2.2 82% -7 76.33 1017.7
04 14:53 NW 15 16.09 Fair CLR -1.7 -4.4 82% -6 76.38 1018.2
04 13:53 NW 15 16.09 Fair CLR -1.7 -5 78% -6 76.4 1018.7
04 12:53 NW 13 16.09 Fair CLR -1.1 -5 75% -5 76.43 1018.8
04 11:53 NW 15 16.09 Mostly Cloudy BKN033 -2.2 -5.6 78% -7 76.43 1018.9
04 10:53 W 15 16.09 Overcast OVC032 -2.2 -5.6 78% -7 76.43 1019.0
04 09:53 W 13 16.09 Overcast OVC031 -1.7 -5 -1.7 -2.2 78% -6 76.43 1019.1
04 08:53 W 7 16.09 Overcast OVC033 -2.2 -5 81% -5 76.43 1019.1
04 07:53 Calm 16.09 Overcast OVC032 -2.2 -3.9 88% 76.43 1019.0
04 06:53 Calm 16.09 Overcast BKN033 OVC050 -2.2 -3.9 88% 76.43 1019.0
04 05:53 Calm 16.09 Overcast BKN029 OVC036 -2.2 -3.3 92% 76.43 1019.0
04 04:53 Calm 16.09 Overcast OVC021 -2.2 -3.3 92% 76.4 1018.8
04 03:53 Calm 16.09 Overcast OVC019 -1.7 -3.3 1.1 -1.7 89% 76.43 1018.9
04 02:53 NW 9 14.48 Light Snow OVC016 -1.7 -3.3 89% -5 76.4 1018.7
04 01:53 NW 9 16.09 Overcast SCT015 BKN019 OVC055 -1.7 -2.2 96% -5 76.4 1018.6
04 00:53 NW 6 16.09 Overcast BKN028 OVC055 -1.1 -3.3 85% 76.38 1018.4
03 23:53 W 11 16.09 Overcast BKN025 OVC060 -0.6 -3.3 82% -4 76.38 1018.2
Date Time (akdt) Wind (kph) Vis. (km) Weather Sky Cond. Air Dwpt Max. Min. Relative Humidity Wind Chill (°C) Heat Index (°C) altimeter (cm) sea level (mb) 1 hr 3 hr 6 hr
6 hour
Temperature (ºC) Pressure Precipitation (cm)